Time;durP1;ratioP1;P1;durP2;ratioP2;P2;SDS_P1;SDS_P2;PMS_P1;PMS_P2;Temp;Humidity;BMP_temperature;BMP_pressure;BME280_temperature;BME280_humidity;BME280_pressure;Samples;Min_cycle;Max_cycle;Signal;HPM_P1;HPM_P2
2022/04/12 00:01:43;;;;;;;25.83;14.23;;;5.90;76.40;;;;;;5052985;28;20029;-16
2022/04/12 00:04:09;;;;;;;24.98;13.95;;;5.90;76.70;;;;;;5053016;28;20048;-16
2022/04/12 00:06:36;;;;;;;21.98;13.98;;;5.90;77.90;;;;;;5052797;28;20037;-15
2022/04/12 00:09:04;;;;;;;20.52;13.43;;;5.90;78.90;;;;;;5053196;28;20029;-16
2022/04/12 00:11:30;;;;;;;20.67;13.95;;;6.00;78.30;;;;;;5053496;28;20079;-15
2022/04/12 00:13:56;;;;;;;20.63;12.10;;;6.00;79.30;;;;;;5052865;28;20039;-14
2022/04/12 00:16:22;;;;;;;20.85;12.18;;;6.00;79.30;;;;;;5051485;28;20108;-15
2022/04/12 00:19:04;;;;;;;21.98;12.13;;;6.00;77.00;;;;;;5052649;28;20025;-14
2022/04/12 00:21:34;;;;;;;24.88;13.27;;;6.00;77.40;;;;;;5052845;28;20423;-15
2022/04/12 00:24:07;;;;;;;22.33;13.02;;;6.00;77.20;;;;;;5052951;28;20361;-16
2022/04/12 00:26:34;;;;;;;21.90;13.77;;;6.00;78.60;;;;;;5052705;28;20491;-16
2022/04/12 00:29:01;;;;;;;23.33;12.88;;;6.00;80.00;;;;;;5052970;28;20024;-14
2022/04/12 00:31:30;;;;;;;17.88;10.23;;;6.00;81.60;;;;;;5053273;28;20055;-16
2022/04/12 00:33:56;;;;;;;21.85;11.93;;;6.00;78.30;;;;;;5052581;28;20373;-15
2022/04/12 00:36:22;;;;;;;16.13;9.93;;;6.00;79.20;;;;;;5052634;28;20029;-15
2022/04/12 00:38:48;;;;;;;22.27;10.65;;;6.00;76.90;;;;;;5054204;28;20104;-16
2022/04/12 00:41:15;;;;;;;17.92;9.80;;;6.00;77.00;;;;;;5056480;28;20081;-14
2022/04/12 00:43:42;;;;;;;18.88;9.63;;;6.00;76.60;;;;;;5056290;28;20025;-16
2022/04/12 00:46:09;;;;;;;16.33;9.13;;;6.00;77.40;;;;;;5056378;28;20037;-14
2022/04/12 00:48:35;;;;;;;15.13;8.85;;;6.00;77.80;;;;;;5056346;28;20025;-16
2022/04/12 00:51:01;;;;;;;18.02;9.75;;;6.10;78.50;;;;;;5055134;28;20028;-14
2022/04/12 00:53:28;;;;;;;17.52;9.90;;;6.00;77.90;;;;;;5056242;28;20032;-16
2022/04/12 00:55:54;;;;;;;18.60;8.70;;;6.10;77.10;;;;;;5056464;28;20021;-14
2022/04/12 00:58:21;;;;;;;13.20;7.85;;;6.10;78.20;;;;;;5055945;28;20056;-14
2022/04/12 01:00:48;;;;;;;15.20;8.15;;;6.10;78.00;;;;;;5056120;28;20091;-14
2022/04/12 01:03:15;;;;;;;14.75;8.25;;;6.10;78.00;;;;;;5055762;28;20021;-14
2022/04/12 01:05:42;;;;;;;18.60;10.18;;;6.20;78.10;;;;;;5055953;28;20154;-12
2022/04/12 01:08:08;;;;;;;17.40;9.43;;;6.10;79.40;;;;;;5056033;28;20033;-12
2022/04/12 01:10:34;;;;;;;15.05;8.77;;;6.10;78.80;;;;;;5056062;28;20040;-14
2022/04/12 01:13:01;;;;;;;13.80;7.90;;;6.10;77.00;;;;;;5055876;28;20059;-13
2022/04/12 01:15:28;;;;;;;20.67;11.18;;;6.10;77.50;;;;;;5055866;28;20029;-14
2022/04/12 01:17:54;;;;;;;16.55;9.27;;;6.10;81.00;;;;;;5055750;28;20033;-15
2022/04/12 01:20:24;;;;;;;14.27;8.50;;;6.10;79.20;;;;;;5055455;28;20033;-15
2022/04/12 01:23:09;;;;;;;13.93;8.35;;;6.10;78.10;;;;;;5055985;28;20033;-14
2022/04/12 01:25:37;;;;;;;12.57;7.10;;;6.10;77.60;;;;;;5055993;28;20029;-14
2022/04/12 01:28:04;;;;;;;17.88;10.80;;;6.00;77.00;;;;;;5055618;28;20381;-15
2022/04/12 01:30:30;;;;;;;16.63;9.20;;;5.90;76.80;;;;;;5055927;28;20476;-15
2022/04/12 01:32:55;;;;;;;12.73;8.43;;;5.90;76.80;;;;;;5056395;28;20055;-15
2022/04/12 01:35:21;;;;;;;20.50;11.25;;;5.90;77.00;;;;;;5055707;28;20457;-15
2022/04/12 01:37:47;;;;;;;21.95;11.60;;;5.80;77.10;;;;;;5055428;28;20029;-16
2022/04/12 01:40:13;;;;;;;21.35;11.35;;;5.80;77.50;;;;;;5055701;28;20079;-15
2022/04/12 01:42:39;;;;;;;21.05;11.65;;;5.70;79.80;;;;;;5055544;28;20024;-15
2022/04/12 01:45:07;;;;;;;18.23;11.73;;;5.80;82.10;;;;;;5055529;28;20097;-15
2022/04/12 01:47:32;;;;;;;24.83;10.82;;;5.80;80.00;;;;;;5055211;28;20111;-16
2022/04/12 01:49:58;;;;;;;21.48;9.13;;;5.80;78.50;;;;;;5055012;28;20163;-14
2022/04/12 01:52:24;;;;;;;17.17;8.52;;;5.80;78.50;;;;;;5055104;28;20507;-15
2022/04/12 01:54:51;;;;;;;18.55;9.15;;;5.80;78.10;;;;;;5055084;28;20025;-12
2022/04/12 01:57:16;;;;;;;17.17;9.07;;;5.70;77.60;;;;;;5055373;28;20021;-14
2022/04/12 01:59:42;;;;;;;17.98;9.15;;;5.70;77.60;;;;;;5055307;28;20420;-14
2022/04/12 02:02:09;;;;;;;15.93;8.23;;;5.70;78.10;;;;;;5054953;28;20394;-16
2022/04/12 02:04:35;;;;;;;15.73;8.77;;;5.60;79.30;;;;;;5069829;28;20052;-16
2022/04/12 02:07:01;;;;;;;17.92;9.60;;;5.70;79.10;;;;;;5054855;28;20043;-15
2022/04/12 02:09:27;;;;;;;17.80;10.07;;;5.70;80.30;;;;;;5054764;28;20061;-15
2022/04/12 02:11:55;;;;;;;15.48;9.45;;;5.70;82.00;;;;;;5054739;28;20033;-15
2022/04/12 02:14:21;;;;;;;17.73;9.10;;;5.80;80.70;;;;;;5055613;28;20427;-14
2022/04/12 02:16:48;;;;;;;13.63;7.88;;;5.70;79.90;;;;;;5054714;28;20109;-16
2022/04/12 02:19:14;;;;;;;18.05;9.15;;;5.70;78.50;;;;;;5054546;28;20384;-15
2022/04/12 02:21:40;;;;;;;17.13;9.10;;;5.70;78.30;;;;;;5054933;28;20100;-14
2022/04/12 02:24:07;;;;;;;17.23;8.00;;;5.70;78.70;;;;;;5054496;28;20488;-15
2022/04/12 02:26:33;;;;;;;15.15;7.70;;;5.70;78.00;;;;;;5054608;28;20104;-14
2022/04/12 02:28:58;;;;;;;16.20;7.70;;;5.60;77.70;;;;;;5054516;28;20087;-15
2022/04/12 02:31:24;;;;;;;14.65;7.60;;;5.60;77.90;;;;;;5054434;28;20025;-15
2022/04/12 02:33:50;;;;;;;18.02;7.82;;;5.60;77.70;;;;;;5054502;28;20017;-14
2022/04/12 02:36:16;;;;;;;14.57;7.97;;;5.60;77.80;;;;;;5054052;28;20025;-15
2022/04/12 02:38:42;;;;;;;13.02;7.38;;;5.60;77.80;;;;;;5070419;28;20075;-15
2022/04/12 02:41:08;;;;;;;10.82;6.85;;;5.60;77.80;;;;;;5054523;28;20033;-16
2022/04/12 02:43:34;;;;;;;16.83;8.93;;;5.50;78.00;;;;;;5054096;28;20427;-16
2022/04/12 02:46:01;;;;;;;14.20;6.55;;;5.50;77.90;;;;;;5054438;28;20048;-15
2022/04/12 02:48:28;;;;;;;13.77;8.07;;;5.50;78.00;;;;;;5054184;28;20053;-13
2022/04/12 02:50:54;;;;;;;12.27;6.20;;;5.50;78.00;;;;;;5069352;28;20029;-16
2022/04/12 02:53:20;;;;;;;15.07;8.05;;;5.50;78.00;;;;;;5054610;28;20031;-16
2022/04/12 02:55:46;;;;;;;13.60;6.85;;;5.40;78.10;;;;;;5053932;28;20051;-14
2022/04/12 02:58:12;;;;;;;17.40;7.95;;;5.40;78.20;;;;;;5053884;28;20078;-16
2022/04/12 03:00:37;;;;;;;14.85;7.50;;;5.40;78.10;;;;;;5053676;28;20033;-15
2022/04/12 03:03:03;;;;;;;12.98;7.10;;;5.40;78.20;;;;;;5053855;28;20519;-16
2022/04/12 03:05:29;;;;;;;19.33;8.00;;;5.40;78.30;;;;;;5053428;28;20432;-15
2022/04/12 03:07:55;;;;;;;14.82;7.68;;;5.30;78.30;;;;;;5053672;28;20484;-15
2022/04/12 03:10:21;;;;;;;16.95;7.85;;;5.30;78.50;;;;;;5053463;28;20035;-15
2022/04/12 03:12:47;;;;;;;15.88;8.70;;;5.30;78.40;;;;;;5053972;28;20036;-15
2022/04/12 03:15:13;;;;;;;12.07;7.32;;;5.20;78.50;;;;;;5053899;28;20032;-14
2022/04/12 03:17:39;;;;;;;15.63;6.55;;;5.30;78.50;;;;;;5053873;28;20032;-16
2022/04/12 03:20:05;;;;;;;12.05;6.35;;;5.20;78.50;;;;;;5053454;28;20420;-15
2022/04/12 03:22:31;;;;;;;16.30;7.55;;;5.20;78.50;;;;;;5053334;28;20035;-16
2022/04/12 03:24:57;;;;;;;13.15;6.88;;;5.20;78.60;;;;;;5053938;28;20025;-15
2022/04/12 03:27:23;;;;;;;16.95;8.10;;;5.20;78.40;;;;;;5053392;28;20032;-16
2022/04/12 03:29:49;;;;;;;15.13;8.20;;;5.10;78.70;;;;;;5053321;28;20077;-15
2022/04/12 03:32:14;;;;;;;12.15;7.43;;;5.00;78.80;;;;;;5053318;28;20021;-15
2022/04/12 03:34:41;;;;;;;19.02;9.02;;;5.00;78.40;;;;;;5053187;28;20074;-15
2022/04/12 03:37:07;;;;;;;12.25;6.70;;;4.90;78.60;;;;;;5053238;28;20036;-18
2022/04/12 03:39:33;;;;;;;20.85;10.13;;;4.90;78.70;;;;;;5053223;28;20029;-15
2022/04/12 03:41:59;;;;;;;16.27;7.57;;;4.90;79.20;;;;;;5053507;28;20075;-15
2022/04/12 03:44:25;;;;;;;14.75;8.40;;;4.90;78.90;;;;;;5052971;28;20496;-14
2022/04/12 03:46:51;;;;;;;13.27;7.57;;;4.90;78.80;;;;;;5053581;28;20111;-15
2022/04/12 03:49:17;;;;;;;13.30;6.78;;;4.90;78.80;;;;;;5053346;28;20028;-15
2022/04/12 03:51:43;;;;;;;17.00;8.93;;;4.90;78.90;;;;;;5053050;28;20365;-15
2022/04/12 03:54:09;;;;;;;11.65;6.55;;;5.00;78.90;;;;;;5053289;28;20037;-16
2022/04/12 03:56:35;;;;;;;13.93;6.40;;;5.10;78.90;;;;;;5052896;28;20475;-14
2022/04/12 03:59:00;;;;;;;14.05;8.27;;;5.10;78.90;;;;;;5053308;28;20036;-14
2022/04/12 04:01:29;;;;;;;14.18;7.75;;;5.10;78.90;;;;;;5053218;28;20384;-15
2022/04/12 04:03:56;;;;;;;13.68;6.70;;;5.10;78.90;;;;;;5052581;28;20557;-16
2022/04/12 04:06:22;;;;;;;10.15;6.07;;;5.10;79.40;;;;;;5053279;28;20484;-14
2022/04/12 04:08:48;;;;;;;14.35;6.47;;;5.10;79.10;;;;;;5052926;28;20036;-17
2022/04/12 04:11:14;;;;;;;14.82;8.80;;;5.10;79.00;;;;;;5053244;28;20024;-16
2022/04/12 04:13:40;;;;;;;13.80;7.38;;;5.20;79.10;;;;;;5056391;28;20104;-15
2022/04/12 04:16:06;;;;;;;16.55;7.75;;;5.20;79.00;;;;;;5057298;28;20089;-15
2022/04/12 04:18:34;;;;;;;14.32;6.95;;;5.20;78.70;;;;;;5057023;28;20029;-16
2022/04/12 04:21:00;;;;;;;17.35;7.60;;;5.20;78.40;;;;;;5056794;28;20057;-15
2022/04/12 04:23:26;;;;;;;15.55;8.25;;;5.20;78.50;;;;;;5057097;28;20060;-17
2022/04/12 04:25:52;;;;;;;12.65;7.40;;;5.20;78.50;;;;;;5056770;28;20072;-14
2022/04/12 04:28:29;;;;;;;17.13;7.18;;;5.30;78.50;;;;;;5056541;28;20029;-15
2022/04/12 04:30:55;;;;;;;16.92;8.80;;;5.30;78.60;;;;;;5056781;28;20025;-15
2022/04/12 04:33:22;;;;;;;15.15;8.00;;;5.20;78.60;;;;;;5057417;28;20087;-16
2022/04/12 04:35:49;;;;;;;12.23;6.80;;;5.20;78.50;;;;;;5056803;28;20032;-15
2022/04/12 04:38:15;;;;;;;15.48;8.13;;;5.20;78.60;;;;;;5056334;28;20033;-16
2022/04/12 04:40:42;;;;;;;16.75;7.45;;;5.30;78.70;;;;;;5056546;28;20492;-14
2022/04/12 04:43:09;;;;;;;19.02;8.82;;;5.30;78.70;;;;;;5057062;28;20075;-15
2022/04/12 04:45:36;;;;;;;14.05;8.27;;;5.40;78.80;;;;;;5056363;28;20036;-14
2022/04/12 04:48:04;;;;;;;14.75;8.25;;;5.40;78.90;;;;;;5056701;28;20062;-12
2022/04/12 04:50:33;;;;;;;15.10;7.30;;;5.50;78.90;;;;;;5071287;28;20035;-15
2022/04/12 04:53:02;;;;;;;16.38;8.13;;;5.60;79.10;;;;;;5056598;28;20503;-14
2022/04/12 04:55:28;;;;;;;14.25;8.23;;;5.70;78.90;;;;;;5056576;28;20017;-15
2022/04/12 04:57:59;;;;;;;22.08;9.10;;;5.80;78.90;;;;;;5056508;28;20119;-14
2022/04/12 05:00:29;;;;;;;16.65;9.55;;;5.90;78.60;;;;;;5055926;28;20400;-15
2022/04/12 05:02:57;;;;;;;18.85;11.05;;;6.00;78.60;;;;;;5056127;28;20434;-15
2022/04/12 05:05:24;;;;;;;16.25;9.00;;;6.10;78.40;;;;;;5055700;28;20077;-14
2022/04/12 05:07:52;;;;;;;19.95;8.70;;;6.10;78.40;;;;;;5056261;28;20029;-14
2022/04/12 05:10:29;;;;;;;20.10;10.77;;;6.20;79.00;;;;;;5055800;28;20492;-13
2022/04/12 05:12:57;;;;;;;17.05;9.88;;;6.20;78.90;;;;;;5055920;28;20024;-16
2022/04/12 05:15:22;;;;;;;22.75;9.55;;;6.30;78.90;;;;;;5056211;28;20104;-15
2022/04/12 05:17:50;;;;;;;18.45;9.10;;;6.40;81.20;;;;;;5055961;28;20540;-14
2022/04/12 05:20:18;;;;;;;15.05;9.02;;;6.40;82.40;;;;;;5055697;28;20021;-15
2022/04/12 05:22:44;;;;;;;16.70;9.20;;;6.50;81.30;;;;;;5055586;28;20488;-15
2022/04/12 05:25:10;;;;;;;14.05;8.73;;;6.50;80.00;;;;;;5070252;28;20498;-15
2022/04/12 05:27:36;;;;;;;20.02;9.77;;;6.70;79.30;;;;;;5055625;28;20032;-15
2022/04/12 05:30:07;;;;;;;20.63;9.70;;;6.80;79.30;;;;;;5056209;28;20476;-16
2022/04/12 05:32:37;;;;;;;18.63;9.75;;;7.00;78.70;;;;;;5055723;28;20025;-16
2022/04/12 05:35:07;;;;;;;20.15;10.70;;;7.20;78.50;;;;;;5055444;28;20032;-15
2022/04/12 05:38:00;;;;;;;15.10;8.20;;;7.40;78.50;;;;;;5055611;28;20017;-16
2022/04/12 05:40:26;;;;;;;15.77;8.32;;;7.60;77.90;;;;;;5054839;28;20045;-17
2022/04/12 05:42:52;;;;;;;17.25;8.35;;;7.80;77.70;;;;;;5055637;28;20519;-15
2022/04/12 05:45:18;;;;;;;15.32;8.40;;;7.90;77.70;;;;;;5055462;28;20037;-15
2022/04/12 05:47:51;;;;;;;15.32;7.63;;;8.00;77.60;;;;;;5055570;28;20039;-16
2022/04/12 05:50:25;;;;;;;21.40;11.52;;;8.10;77.50;;;;;;5055281;28;20020;-16
2022/04/12 05:52:52;;;;;;;20.73;12.30;;;8.30;77.40;;;;;;5055671;28;20442;-15
2022/04/12 05:55:21;;;;;;;22.70;15.07;;;8.50;77.20;;;;;;5055320;28;20481;-16
2022/04/12 05:57:55;;;;;;;38.40;21.90;;;8.60;77.20;;;;;;5055370;28;20104;-17
2022/04/12 06:00:25;;;;;;;19.20;10.45;;;9.00;77.40;;;;;;5054800;28;20545;-17
2022/04/12 06:02:54;;;;;;;19.35;11.23;;;9.40;76.80;;;;;;5055346;28;20453;-13
2022/04/12 06:05:21;;;;;;;18.13;11.20;;;9.80;76.50;;;;;;5054628;28;20060;-17
2022/04/12 06:07:48;;;;;;;18.85;8.63;;;10.10;76.40;;;;;;5055249;28;20052;-14
2022/04/12 06:10:17;;;;;;;13.73;7.10;;;10.50;75.80;;;;;;5054727;28;20488;-16
2022/04/12 06:12:43;;;;;;;13.55;7.68;;;10.90;75.80;;;;;;5054787;28;20020;-15
2022/04/12 06:15:10;;;;;;;11.57;7.00;;;11.20;73.60;;;;;;5055074;28;20025;-14
2022/04/12 06:17:37;;;;;;;12.07;7.40;;;11.30;73.00;;;;;;5054718;28;20029;-15
2022/04/12 06:20:04;;;;;;;14.52;7.65;;;11.50;73.00;;;;;;5054883;28;20104;-15
2022/04/12 06:22:31;;;;;;;13.57;7.47;;;11.60;71.70;;;;;;5054720;28;20028;-16
2022/04/12 06:24:57;;;;;;;19.35;7.88;;;11.70;71.60;;;;;;5054809;28;20025;-14
2022/04/12 06:27:34;;;;;;;15.43;7.55;;;11.70;70.40;;;;;;5054848;28;20380;-16
2022/04/12 06:30:11;;;;;;;11.80;6.80;;;11.70;71.70;;;;;;5054785;28;20472;-16
2022/04/12 06:32:38;;;;;;;14.98;8.15;;;11.90;72.40;;;;;;5054265;28;20032;-14
2022/04/12 06:35:06;;;;;;;11.68;6.53;;;12.20;71.70;;;;;;5054019;28;20040;-16
2022/04/12 06:37:33;;;;;;;12.85;6.82;;;12.60;71.40;;;;;;5053694;28;20376;-16
2022/04/12 06:40:00;;;;;;;12.57;6.88;;;12.90;70.70;;;;;;5054291;28;20048;-16
2022/04/12 06:42:26;;;;;;;9.93;6.47;;;13.30;69.90;;;;;;5054005;28;20496;-16
2022/04/12 06:44:52;;;;;;;11.43;6.82;;;13.50;68.40;;;;;;5054441;28;20078;-14
2022/04/12 06:47:19;;;;;;;13.15;7.45;;;13.60;67.60;;;;;;5054453;28;20059;-14
2022/04/12 06:49:49;;;;;;;13.35;7.40;;;13.80;65.90;;;;;;5053896;28;20027;-14
2022/04/12 06:52:19;;;;;;;15.45;7.47;;;13.70;65.20;;;;;;5053870;28;20029;-16
2022/04/12 06:54:46;;;;;;;12.40;6.20;;;13.80;66.70;;;;;;5053955;28;20056;-15
2022/04/12 06:57:12;;;;;;;12.25;7.55;;;14.00;66.60;;;;;;5053888;28;20025;-14
2022/04/12 06:59:38;;;;;;;10.95;7.28;;;14.40;65.10;;;;;;5054512;28;20021;-14
2022/04/12 07:02:05;;;;;;;11.50;6.95;;;14.50;63.70;;;;;;5054152;28;20114;-16
2022/04/12 07:04:32;;;;;;;12.13;6.65;;;14.70;64.20;;;;;;5053264;28;20065;-14
2022/04/12 07:06:59;;;;;;;13.93;7.22;;;14.90;63.80;;;;;;5053798;28;20033;-14
2022/04/12 07:09:29;;;;;;;11.18;7.15;;;15.00;61.40;;;;;;5054597;28;20017;-15
2022/04/12 07:11:57;;;;;;;13.65;8.00;;;15.10;61.50;;;;;;5053950;28;20029;-14
2022/04/12 07:14:25;;;;;;;15.10;6.75;;;15.00;61.40;;;;;;5053306;28;20017;-15
2022/04/12 07:16:51;;;;;;;11.55;6.05;;;15.10;62.30;;;;;;5053613;28;20059;-15
2022/04/12 07:19:17;;;;;;;9.85;6.13;;;15.30;62.20;;;;;;5053358;28;20362;-16
2022/04/12 07:21:43;;;;;;;16.48;7.07;;;15.60;61.60;;;;;;5053480;28;20029;-17
2022/04/12 07:24:10;;;;;;;17.10;7.22;;;15.80;59.30;;;;;;5053301;28;20102;-16
2022/04/12 07:26:36;;;;;;;12.60;6.43;;;15.90;60.20;;;;;;5052875;28;20029;-14
2022/04/12 07:29:03;;;;;;;11.90;6.07;;;16.00;60.70;;;;;;5053998;28;20029;-15
2022/04/12 07:31:29;;;;;;;12.25;6.03;;;16.20;60.00;;;;;;5053692;28;20029;-14
2022/04/12 07:33:55;;;;;;;9.23;6.20;;;16.20;59.90;;;;;;5052914;28;20033;-14
2022/04/12 07:36:21;;;;;;;11.68;5.88;;;16.30;59.80;;;;;;5052523;28;20021;-14
2022/04/12 07:38:50;;;;;;;12.45;6.72;;;16.30;59.60;;;;;;5052819;28;20056;-16
2022/04/12 07:41:17;;;;;;;14.30;6.32;;;16.30;59.40;;;;;;5052869;28;20025;-16
2022/04/12 07:43:47;;;;;;;11.52;6.32;;;16.30;59.00;;;;;;5053648;28;20024;-14
2022/04/12 07:46:14;;;;;;;11.75;6.03;;;16.30;59.10;;;;;;5053424;28;20044;-16
2022/04/12 07:48:41;;;;;;;9.93;6.32;;;16.40;58.70;;;;;;5052759;28;20060;-14
2022/04/12 07:51:07;;;;;;;12.90;6.07;;;16.50;58.90;;;;;;5053543;28;20033;-14
2022/04/12 07:53:33;;;;;;;11.50;5.38;;;16.50;58.80;;;;;;5068630;28;20025;-16
2022/04/12 07:55:59;;;;;;;11.18;6.57;;;16.50;59.10;;;;;;5053027;28;20404;-14
2022/04/12 07:58:25;;;;;;;9.73;5.82;;;16.50;58.80;;;;;;5052897;28;20108;-13
2022/04/12 08:00:51;;;;;;;11.73;6.20;;;16.30;59.20;;;;;;5052954;28;20032;-14
2022/04/12 08:03:21;;;;;;;10.25;5.95;;;16.30;59.50;;;;;;5052683;28;20037;-15
2022/04/12 08:05:48;;;;;;;9.90;5.32;;;16.50;59.40;;;;;;5052954;28;20040;-14
2022/04/12 08:08:15;;;;;;;12.23;5.82;;;16.70;57.80;;;;;;5052714;28;20052;-14
2022/04/12 08:10:43;;;;;;;12.15;6.25;;;16.80;57.60;;;;;;5053424;28;20044;-14
2022/04/12 08:13:10;;;;;;;12.48;6.32;;;16.80;57.00;;;;;;5052790;28;20039;-15
2022/04/12 08:15:39;;;;;;;9.45;5.45;;;16.90;57.40;;;;;;5052809;28;20439;-14
2022/04/12 08:18:06;;;;;;;10.32;5.15;;;17.20;57.60;;;;;;5052823;28;20017;-14
2022/04/12 08:20:33;;;;;;;8.30;4.95;;;17.70;56.80;;;;;;5053135;28;20468;-16
2022/04/12 08:22:59;;;;;;;7.90;5.07;;;18.00;55.60;;;;;;5051880;28;20037;-16
2022/04/12 08:25:25;;;;;;;11.93;6.20;;;18.30;54.30;;;;;;5052861;28;20037;-16
2022/04/12 08:27:51;;;;;;;9.15;5.40;;;18.40;53.70;;;;;;5053180;28;20032;-14
2022/04/12 08:30:17;;;;;;;12.13;5.40;;;18.40;53.60;;;;;;5052548;28;20025;-14
2022/04/12 08:32:43;;;;;;;11.52;5.57;;;18.40;53.80;;;;;;5053158;28;20025;-14
2022/04/12 08:35:10;;;;;;;12.35;6.13;;;18.40;53.80;;;;;;5068091;28;20028;-14
2022/04/12 08:37:36;;;;;;;8.93;5.40;;;18.40;53.90;;;;;;5053266;28;20021;-14
2022/04/12 08:40:04;;;;;;;11.70;5.80;;;18.30;52.80;;;;;;5052616;28;20489;-14
2022/04/12 08:42:31;;;;;;;10.25;5.32;;;18.20;54.20;;;;;;5052374;28;20546;-14
2022/04/12 08:44:58;;;;;;;10.82;5.47;;;18.40;53.90;;;;;;5052532;28;20063;-15
2022/04/12 08:47:25;;;;;;;9.77;5.28;;;18.40;53.30;;;;;;5052506;28;20025;-14
2022/04/12 08:49:51;;;;;;;11.93;6.50;;;18.40;53.30;;;;;;5052911;28;20484;-14
2022/04/12 08:52:17;;;;;;;8.73;4.90;;;18.30;52.70;;;;;;5052212;28;20029;-14
2022/04/12 08:54:45;;;;;;;9.38;5.32;;;18.20;53.60;;;;;;5052793;28;20021;-14
2022/04/12 08:57:12;;;;;;;12.40;6.00;;;18.10;53.60;;;;;;5052445;28;20025;-14
2022/04/12 08:59:41;;;;;;;8.70;5.00;;;18.40;53.70;;;;;;5054434;28;20369;-14
2022/04/12 09:02:09;;;;;;;11.27;5.75;;;18.60;53.60;;;;;;5056460;28;20037;-14
2022/04/12 09:04:36;;;;;;;11.98;5.78;;;18.90;52.30;;;;;;5055453;28;20052;-14
2022/04/12 09:07:07;;;;;;;11.18;5.75;;;19.10;51.70;;;;;;5056331;28;20500;-17
2022/04/12 09:09:34;;;;;;;8.77;4.80;;;19.20;51.20;;;;;;5056202;28;20493;-15
2022/04/12 09:12:09;;;;;;;9.40;5.20;;;19.40;51.10;;;;;;5055727;28;20557;-16
2022/04/12 09:14:52;;;;;;;9.60;5.20;;;19.80;50.90;;;;;;5055629;28;20025;-15
2022/04/12 09:17:35;;;;;;;8.40;5.30;;;20.10;48.60;;;;;;5055901;28;20029;-14
2022/04/12 09:20:04;;;;;;;8.77;4.55;;;20.20;48.70;;;;;;5055584;28;20029;-15
2022/04/12 09:22:34;;;;;;;9.18;5.10;;;20.20;49.00;;;;;;5056543;28;20041;-14
2022/04/12 09:25:06;;;;;;;8.85;4.72;;;20.40;47.50;;;;;;5055669;28;20032;-15
2022/04/12 09:27:34;;;;;;;8.40;5.00;;;20.60;46.20;;;;;;5056019;28;20025;-14
2022/04/12 09:30:06;;;;;;;9.18;4.28;;;20.80;45.80;;;;;;5055569;28;20032;-14
2022/04/12 09:32:45;;;;;;;6.88;3.90;;;20.70;45.90;;;;;;5055800;28;20017;-14
2022/04/12 09:35:11;;;;;;;8.52;5.15;;;20.60;45.20;;;;;;5055495;28;20037;-14
2022/04/12 09:37:43;;;;;;;7.55;4.40;;;20.50;46.10;;;;;;5055471;28;20032;-14
2022/04/12 09:40:13;;;;;;;10.90;5.03;;;20.40;46.50;;;;;;5055470;28;20104;-15
2022/04/12 09:42:52;;;;;;;8.43;4.50;;;20.50;46.90;;;;;;5055405;28;20060;-15
2022/04/12 09:45:20;;;;;;;9.80;4.65;;;20.50;46.50;;;;;;5055663;28;20037;-15
2022/04/12 09:47:48;;;;;;;10.10;4.95;;;20.60;47.00;;;;;;5055616;28;20060;-15
2022/04/12 09:50:15;;;;;;;8.40;4.78;;;20.70;45.20;;;;;;5054939;28;20025;-15
2022/04/12 09:52:53;;;;;;;7.45;4.63;;;20.30;45.90;;;;;;5055198;28;20070;-14
2022/04/12 09:55:38;;;;;;;10.02;4.93;;;20.20;46.50;;;;;;5055242;28;20498;-14
2022/04/12 09:58:08;;;;;;;6.10;3.97;;;20.40;45.80;;;;;;5055466;28;20044;-17
2022/04/12 10:00:35;;;;;;;9.95;4.90;;;20.50;45.70;;;;;;5054968;28;20034;-15
2022/04/12 10:03:06;;;;;;;9.23;4.25;;;20.40;45.40;;;;;;5055433;28;20056;-15
2022/04/12 10:05:33;;;;;;;9.45;5.00;;;20.20;46.50;;;;;;5054697;28;20048;-14
2022/04/12 10:08:05;;;;;;;11.90;4.85;;;20.40;46.80;;;;;;5055406;28;20025;-14
2022/04/12 10:10:31;;;;;;;9.15;5.45;;;20.80;46.00;;;;;;5054479;28;20032;-14
2022/04/12 10:12:58;;;;;;;8.15;5.00;;;21.00;46.00;;;;;;5054986;28;20155;-14
2022/04/12 10:15:27;;;;;;;7.40;4.40;;;21.30;46.20;;;;;;5055114;28;20049;-15
2022/04/12 10:17:55;;;;;;;6.68;5.05;;;21.60;45.00;;;;;;5054746;28;20020;-14
2022/04/12 10:20:22;;;;;;;7.63;4.40;;;22.00;42.80;;;;;;5054569;28;20025;-15
2022/04/12 10:22:49;;;;;;;9.25;5.35;;;22.30;42.60;;;;;;5055113;28;20409;-14
2022/04/12 10:25:21;;;;;;;6.88;4.60;;;22.50;41.90;;;;;;5053694;28;20032;-15
2022/04/12 10:27:48;;;;;;;8.23;4.57;;;22.70;42.70;;;;;;5054764;28;20468;-14
2022/04/12 10:30:26;;;;;;;9.43;5.38;;;23.00;42.30;;;;;;5054621;28;20021;-14
2022/04/12 10:33:24;;;;;;;8.18;5.28;;;23.20;40.40;;;;;;5054477;28;20025;-14
2022/04/12 10:35:56;;;;;;;11.23;5.35;;;23.10;40.90;;;;;;5054231;28;20067;-14
2022/04/12 10:38:37;;;;;;;9.18;4.88;;;23.30;39.60;;;;;;5054308;28;20029;-14
2022/04/12 10:41:13;;;;;;;10.02;5.63;;;23.40;39.90;;;;;;5054530;28;20104;-14
2022/04/12 10:43:40;;;;;;;7.35;4.20;;;23.50;38.60;;;;;;5054583;28;20025;-15
2022/04/12 10:46:11;;;;;;;9.73;4.57;;;23.60;38.70;;;;;;5054377;28;20053;-14
2022/04/12 10:48:38;;;;;;;9.43;5.43;;;23.90;38.60;;;;;;5054262;28;20017;-15
2022/04/12 10:51:05;;;;;;;8.98;4.80;;;24.00;38.80;;;;;;5054265;28;20029;-14
2022/04/12 10:53:39;;;;;;;9.20;4.30;;;24.10;37.70;;;;;;5054383;28;20021;-13
2022/04/12 10:56:16;;;;;;;10.20;5.20;;;24.00;37.90;;;;;;5054203;28;20032;-13
2022/04/12 10:58:44;;;;;;;8.27;4.88;;;24.20;37.30;;;;;;5054190;28;20024;-13
2022/04/12 11:01:32;;;;;;;9.55;5.43;;;24.00;38.80;;;;;;5054151;28;20029;-14
2022/04/12 11:04:05;;;;;;;8.65;4.85;;;24.00;37.80;;;;;;5054021;28;20064;-14
2022/04/12 11:06:34;;;;;;;11.97;5.33;;;24.00;39.20;;;;;;5054102;28;20032;-14
2022/04/12 11:09:12;;;;;;;12.18;5.18;;;24.30;38.30;;;;;;5054209;28;20033;-14
2022/04/12 11:11:43;;;;;;;7.43;4.65;;;24.40;36.60;;;;;;5054066;28;20100;-14
2022/04/12 11:14:38;;;;;;;9.32;6.25;;;24.60;37.60;;;;;;5053992;28;20025;-14
2022/04/12 11:17:09;;;;;;;10.55;6.28;;;24.70;35.90;;;;;;5053549;28;20037;-14
2022/04/12 11:19:48;;;;;;;9.43;5.70;;;24.40;36.50;;;;;;5053779;28;20025;-13
2022/04/12 11:22:15;;;;;;;8.70;4.68;;;23.90;36.90;;;;;;5052741;28;20029;-15
2022/04/12 11:24:42;;;;;;;8.85;5.18;;;24.00;37.50;;;;;;5053731;28;20037;-14
2022/04/12 11:27:11;;;;;;;10.55;6.47;;;24.40;35.90;;;;;;5053733;28;20021;-14
2022/04/12 11:29:39;;;;;;;12.63;5.88;;;24.60;35.70;;;;;;5054278;28;20023;-13
2022/04/12 11:32:06;;;;;;;6.93;5.10;;;24.70;35.10;;;;;;5054007;28;20477;-14
2022/04/12 11:34:37;;;;;;;7.10;4.80;;;24.90;35.80;;;;;;5053671;28;20536;-14
2022/04/12 11:37:11;;;;;;;8.95;5.70;;;25.10;35.40;;;;;;5053632;28;20033;-14
2022/04/12 11:39:41;;;;;;;9.98;5.30;;;25.10;35.20;;;;;;5053322;28;20028;-14
2022/04/12 11:42:09;;;;;;;11.05;6.10;;;25.20;35.50;;;;;;5053612;28;20032;-15
2022/04/12 11:44:35;;;;;;;11.48;6.28;;;25.30;34.70;;;;;;5053228;28;20029;-14
2022/04/12 11:47:02;;;;;;;10.60;5.63;;;25.30;33.90;;;;;;5053260;28;20036;-14
2022/04/12 11:49:31;;;;;;;8.30;5.28;;;25.40;33.10;;;;;;5053131;28;20025;-14
2022/04/12 11:52:02;;;;;;;7.85;5.55;;;25.40;34.00;;;;;;5053129;28;20037;-15
2022/04/12 11:54:34;;;;;;;11.35;6.43;;;25.60;34.30;;;;;;5053077;28;20021;-14
2022/04/12 11:57:03;;;;;;;10.00;6.18;;;25.30;33.30;;;;;;5053447;28;20033;-14
2022/04/12 11:59:32;;;;;;;9.10;4.97;;;24.90;34.00;;;;;;5053397;28;20025;-14
2022/04/12 12:02:01;;;;;;;8.45;5.25;;;24.50;34.90;;;;;;5053227;28;20393;-15
2022/04/12 12:04:32;;;;;;;11.10;6.50;;;24.60;35.60;;;;;;5052725;28;20105;-14
2022/04/12 12:07:09;;;;;;;10.85;6.13;;;25.00;35.20;;;;;;5053591;28;20032;-14
2022/04/12 12:10:14;;;;;;;11.57;6.47;;;25.50;34.60;;;;;;5053323;28;20025;-14
2022/04/12 12:12:45;;;;;;;11.57;6.47;;;26.20;32.80;;;;;;5051188;28;20032;-14
2022/04/12 12:15:21;;;;;;;12.23;6.32;;;26.40;32.90;;;;;;5051684;28;20128;-15
2022/04/12 12:17:49;;;;;;;9.52;5.88;;;26.60;32.50;;;;;;5050845;28;20021;-14
2022/04/12 12:20:17;;;;;;;11.10;6.20;;;26.90;32.00;;;;;;5050563;28;20057;-15
2022/04/12 12:22:45;;;;;;;8.30;6.38;;;27.10;31.70;;;;;;5050759;28;20100;-14
2022/04/12 12:25:18;;;;;;;9.93;6.20;;;27.40;31.40;;;;;;5051053;28;20115;-14
2022/04/12 12:27:54;;;;;;;11.27;6.05;;;27.60;30.90;;;;;;5050610;28;20043;-15
2022/04/12 12:30:27;;;;;;;8.85;6.15;;;27.90;30.70;;;;;;5050774;28;20025;-15
2022/04/12 12:32:54;;;;;;;;;;;28.10;30.60;;;;;;5051098;28;20512;-14
2022/04/12 12:35:26;;;;;;;19.83;7.53;;;28.20;29.80;;;;;;5054991;28;19916;-15
2022/04/12 12:38:12;;;;;;;14.23;6.70;;;27.90;31.00;;;;;;5054606;28;20487;-14
2022/04/12 12:40:40;;;;;;;9.23;6.95;;;27.50;31.80;;;;;;5055091;28;20057;-14
2022/04/12 12:43:09;;;;;;;12.23;7.40;;;27.30;32.20;;;;;;5054571;28;20036;-14
2022/04/12 12:45:38;;;;;;;11.98;7.70;;;27.10;32.30;;;;;;5054764;28;20032;-14
2022/04/12 12:48:08;;;;;;;11.25;7.90;;;26.80;32.50;;;;;;5056412;28;20035;-14
2022/04/12 12:50:36;;;;;;;10.70;7.80;;;26.40;32.70;;;;;;5056481;28;20029;-14